world map with LRL marked

LRL - Airport

This information may not be accurate or current and is not valid for navigation or flight planning. No warranty of fitness for any purpose is made or implied.

flag of Togo

Donate via PayPal

Additional information is available on the NEW Great Circle Mapper

Location
City:  Niamtougou, Kara, Togo
Name:Niamtougou International Airport
ICAO / IATA:DXNG / LRL

Details
Type:Airport (Aerodrome, Airfield)
Use:Public/Civil
Latitude:9°46'39"N (9.777500)
Longitude:1°05'44"E (1.095556)
Elevation:1516 ft (462 m)
Runways:1
Longest:8202 × 148 ft (2500 × 45 m)

Time
Timezone:UTC+0 (DST+2)
Local Time:

Weather
METAR:DXNG  041400Z VRB04KT 9999 FEW010 35/12 Q1012
TAF:DXNG  041100Z 0412/0512 VRB05KT CAVOK= TAF KAFF 041203Z 0412/0518 21015G30KT 9999 FEW200 530009 QNH2970INS WND 090 V270 TEMPO 0412/0414 26025G35KT 560154 BECMG 0414/0415 20012KT 9999 FEW200 520001 530109 QNH2965INS WND 160V240 TEMPO 0415/0417 20012G22KT BECMG 0417/0418 18012G18KT 9999 FEW200 520002 530209 QNH2964INS TEMPO 0418/0500 18020G28KT BECMG 0500/0501 24012KT 9999 FEW150 QNH2963INS BECMG 0508/0509 26025G35KT 9999 SCT080 SCT120 530009 QNH2958INS TX15/0421Z TN05/0412Z

Related Locations
Nearby:
Farthest:FUN: 12287 mi / 19774 km
Funafuti Atoll [Intl], TV

Find:

   beyond  
but within

Other Information
Maps:
Sources:

  


 


Great Circle Mapper   Great Circle Mapper
Great Circle Mapper FAQ   Great Circle Mapper FAQ
  Karl's Home Page
KLSē   KLSē Home
   GC on Facebook
Airlines of the World   Airlines of the World
Donate via PayPal


Copyright © 2004-2019, Karl L. Swartz. All rights reserved.
All trademarks mentioned herein belong to their respective owners.

Please see credits for attribution and copyright information.

Karl Swartz <karl@kls2.com>
  Powered by FreeBSD
Valid HTML 4.01!
Labeled with ICRA
hCard Microformat
Geo Microformat